Time;durP1;ratioP1;P1;durP2;ratioP2;P2;SDS_P1;SDS_P2;PMS_P1;PMS_P2;Temp;Humidity;BMP_temperature;BMP_pressure;BME280_temperature;BME280_humidity;BME280_pressure;Samples;Min_cycle;Max_cycle;Signal;HPM_P1;HPM_P2
2021/09/20 00:01:12;;;;;;;5.55;3.55;;;;;;;8.15;82.52;100241.50;1752472;81;28061;-70
2021/09/20 00:03:38;;;;;;;4.62;3.35;;;;;;;8.15;82.46;100242.06;1752447;81;25856;-70
2021/09/20 00:06:05;;;;;;;3.65;3.35;;;;;;;8.14;82.43;100241.80;1752538;81;25685;-70
2021/09/20 00:08:31;;;;;;;5.30;3.80;;;;;;;8.13;82.55;100242.35;1752378;81;25453;-70
2021/09/20 00:10:59;;;;;;;4.28;3.52;;;;;;;8.14;82.65;100245.31;1752521;81;25561;-70
2021/09/20 00:13:25;;;;;;;4.22;3.08;;;;;;;8.15;82.57;100243.41;1752542;81;27504;-70
2021/09/20 00:15:51;;;;;;;4.00;3.17;;;;;;;8.15;82.47;100244.75;1752232;81;25471;-70
2021/09/20 00:18:18;;;;;;;5.12;3.58;;;;;;;8.14;82.33;100248.00;1752576;81;25690;-70
2021/09/20 00:20:44;;;;;;;4.15;3.60;;;;;;;8.14;82.15;100249.35;1752495;81;25587;-70
2021/09/20 00:23:11;;;;;;;4.08;3.33;;;;;;;8.13;82.14;100249.09;1752437;81;25715;-70
2021/09/20 00:25:37;;;;;;;4.03;3.10;;;;;;;8.12;82.07;100247.50;1752463;81;28275;-69
2021/09/20 00:28:04;;;;;;;3.77;3.00;;;;;;;8.12;82.00;100244.81;1752461;81;26057;-70
2021/09/20 00:30:30;;;;;;;4.47;2.87;;;;;;;8.11;81.83;100247.80;1752420;81;25481;-70
2021/09/20 00:32:57;;;;;;;4.72;3.15;;;;;;;8.11;81.85;100255.88;1752423;81;25686;-70
2021/09/20 00:35:23;;;;;;;3.67;3.10;;;;;;;8.09;81.83;100254.00;1752581;81;25491;-70
2021/09/20 00:37:50;;;;;;;3.87;3.40;;;;;;;8.08;81.79;100257.80;1752332;81;27678;-70
2021/09/20 00:40:16;;;;;;;5.00;2.87;;;;;;;8.09;82.47;100258.04;1752471;81;25511;-70
2021/09/20 00:42:43;;;;;;;3.30;2.80;;;;;;;8.13;82.57;100259.86;1722629;81;25697;-70
2021/09/20 00:45:10;;;;;;;5.65;3.27;;;;;;;8.14;82.17;100262.83;1747212;81;25816;-70
2021/09/20 00:47:36;;;;;;;5.30;3.52;;;;;;;8.14;82.01;100261.48;1702198;83;25421;-69
2021/09/20 00:50:04;;;;;;;6.85;3.33;;;;;;;8.15;81.88;100263.06;1728753;83;27466;-70
2021/09/20 00:52:31;;;;;;;5.00;3.55;;;;;;;8.14;81.91;100264.17;1728501;83;25808;-70
2021/09/20 00:54:58;;;;;;;5.53;3.62;;;;;;;8.14;81.96;100260.66;1728683;83;25566;-70
2021/09/20 00:57:24;;;;;;;8.15;3.67;;;;;;;8.16;81.98;100261.19;1728709;83;26215;-70
2021/09/20 00:59:51;;;;;;;4.47;3.47;;;;;;;8.16;81.99;100261.19;1701736;83;25641;-70
2021/09/20 01:02:17;;;;;;;7.35;3.67;;;;;;;8.15;81.93;100260.36;1755522;81;27581;-70
2021/09/20 01:04:44;;;;;;;4.45;3.33;;;;;;;8.14;81.86;100259.31;1755276;81;25687;-69
2021/09/20 01:07:10;;;;;;;4.80;3.35;;;;;;;8.15;81.70;100259.02;1755349;81;25419;-69
2021/09/20 01:09:40;;;;;;;4.12;3.40;;;;;;;8.15;81.72;100257.67;1755383;81;25540;-70
2021/09/20 01:12:06;;;;;;;4.00;2.98;;;;;;;8.15;81.75;100257.67;1755170;81;25636;-70
2021/09/20 01:14:32;;;;;;;5.92;3.55;;;;;;;8.15;81.73;100263.06;1755371;81;28137;-69
2021/09/20 01:16:58;;;;;;;5.10;3.27;;;;;;;8.14;81.76;100253.39;1755231;81;25673;-69
2021/09/20 01:19:25;;;;;;;4.70;2.92;;;;;;;8.15;81.66;100264.96;1755480;81;25610;-69
2021/09/20 01:21:52;;;;;;;6.22;3.37;;;;;;;8.14;81.61;100260.66;1755288;81;25667;-69
2021/09/20 01:24:19;;;;;;;4.08;3.08;;;;;;;8.12;81.53;100259.62;1755372;81;25684;-69
2021/09/20 01:26:45;;;;;;;4.47;3.40;;;;;;;8.11;81.47;100259.92;1755333;81;27459;-69
2021/09/20 01:29:12;;;;;;;4.20;3.02;;;;;;;8.11;81.53;100259.36;1755325;81;25671;-70
2021/09/20 01:31:38;;;;;;;9.23;3.05;;;;;;;8.10;81.55;100256.95;1755300;81;25469;-70
2021/09/20 01:34:04;;;;;;;3.95;2.92;;;;;;;8.10;81.56;100254.27;1755354;81;25632;-70
2021/09/20 01:36:30;;;;;;;3.40;2.72;;;;;;;8.09;81.41;100260.73;1755395;81;25691;-70
2021/09/20 01:38:56;;;;;;;4.60;3.10;;;;;;;8.07;81.40;100257.02;1755250;81;27446;-70
2021/09/20 01:41:23;;;;;;;4.67;3.50;;;;;;;8.06;81.40;100250.02;1755320;81;25656;-70
2021/09/20 01:43:49;;;;;;;4.33;3.20;;;;;;;8.07;81.42;100248.93;1755360;81;25620;-69
2021/09/20 01:46:16;;;;;;;3.45;2.87;;;;;;;8.08;81.37;100253.77;1769177;80;25528;-70
2021/09/20 01:48:42;;;;;;;3.10;2.40;;;;;;;8.08;81.42;100253.20;1783482;80;25560;-70
2021/09/20 01:51:09;;;;;;;4.28;2.95;;;;;;;8.07;81.41;100247.59;1783502;80;27550;-70
2021/09/20 01:53:35;;;;;;;3.22;2.52;;;;;;;8.06;81.30;100245.18;1783291;80;25670;-70
2021/09/20 01:56:02;;;;;;;4.50;2.50;;;;;;;8.06;81.38;100245.97;1783440;80;25387;-70
2021/09/20 01:58:28;;;;;;;3.27;2.70;;;;;;;8.07;81.42;100251.63;1783518;80;25660;-70
2021/09/20 02:00:54;;;;;;;3.58;2.75;;;;;;;8.04;81.44;100244.91;1783337;80;25606;-70
2021/09/20 02:03:21;;;;;;;3.42;2.98;;;;;;;8.05;81.29;100255.13;1783435;80;28066;-70
2021/09/20 02:05:47;;;;;;;3.12;2.75;;;;;;;8.03;81.21;100254.08;1783297;80;25681;-70
2021/09/20 02:08:14;;;;;;;5.10;2.70;;;;;;;8.01;81.21;100250.87;1783374;80;25514;-70
2021/09/20 02:10:40;;;;;;;7.95;3.12;;;;;;;8.00;81.24;100246.61;1783443;80;26136;-70
2021/09/20 02:13:06;;;;;;;3.17;2.55;;;;;;;8.00;81.25;100252.52;1783502;80;25367;-69
2021/09/20 02:15:33;;;;;;;4.37;2.83;;;;;;;8.00;81.24;100256.55;1783306;80;28149;-70
2021/09/20 02:17:59;;;;;;;3.77;2.77;;;;;;;7.98;81.08;100254.16;1783366;80;25586;-70
2021/09/20 02:20:26;;;;;;;3.92;2.25;;;;;;;7.97;81.07;100257.16;1783493;80;25545;-70
2021/09/20 02:22:53;;;;;;;3.10;2.35;;;;;;;7.95;81.06;100256.63;1783327;80;25645;-70
2021/09/20 02:25:23;;;;;;;3.40;2.27;;;;;;;7.94;81.19;100249.66;1783617;80;25397;-71
2021/09/20 02:27:49;;;;;;;5.80;2.37;;;;;;;7.94;81.22;100256.40;1783690;80;27488;-69
2021/09/20 02:30:16;;;;;;;3.52;2.35;;;;;;;7.94;81.19;100253.70;1783393;80;25457;-70
2021/09/20 02:32:43;;;;;;;2.80;2.50;;;;;;;7.94;81.19;100259.09;1783546;80;25677;-70
2021/09/20 02:35:11;;;;;;;2.58;2.20;;;;;;;7.94;81.11;100256.40;1783422;80;26213;-70
2021/09/20 02:37:39;;;;;;;2.45;2.25;;;;;;;7.93;81.04;100256.13;1783364;80;25747;-70
2021/09/20 02:40:09;;;;;;;2.70;2.17;;;;;;;7.91;81.07;100251.03;1783420;80;27477;-70
2021/09/20 02:42:35;;;;;;;3.25;2.37;;;;;;;7.92;81.02;100243.77;1783343;80;25774;-70
2021/09/20 02:45:05;;;;;;;2.75;2.22;;;;;;;7.91;80.96;100248.34;1783291;80;25580;-70
2021/09/20 02:47:34;;;;;;;2.80;1.82;;;;;;;7.90;80.97;100245.41;1788793;80;26215;-71
2021/09/20 02:50:01;;;;;;;2.37;2.17;;;;;;;7.90;80.93;100245.41;1789420;80;25672;-70
2021/09/20 02:52:27;;;;;;;2.25;2.05;;;;;;;7.90;80.84;100245.41;1789126;80;27565;-70
2021/09/20 02:54:54;;;;;;;4.65;2.40;;;;;;;7.88;80.78;100243.53;1789133;80;25569;-71
2021/09/20 02:57:20;;;;;;;4.87;2.80;;;;;;;7.87;80.87;100247.34;1789453;80;25442;-70
2021/09/20 02:59:47;;;;;;;2.62;2.20;;;;;;;7.86;80.85;100246.52;1789156;80;25570;-70
2021/09/20 03:02:14;;;;;;;2.30;2.02;;;;;;;7.87;80.79;100245.98;1789331;80;25750;-70
2021/09/20 03:04:40;;;;;;;2.98;2.45;;;;;;;7.85;80.65;100239.55;1789185;80;27471;-70
2021/09/20 03:07:06;;;;;;;2.70;2.50;;;;;;;7.83;80.66;100243.08;1789014;80;25440;-70
2021/09/20 03:09:33;;;;;;;6.85;2.33;;;;;;;7.82;80.83;100242.81;1789307;80;25641;-69
2021/09/20 03:12:00;;;;;;;3.15;2.33;;;;;;;7.80;80.81;100236.92;1789229;80;26223;-69
2021/09/20 03:14:27;;;;;;;3.40;2.42;;;;;;;7.80;80.84;100237.48;1789271;80;25460;-70
2021/09/20 03:16:53;;;;;;;4.28;2.40;;;;;;;7.80;80.92;100237.48;1789203;80;28049;-70
2021/09/20 03:19:20;;;;;;;3.00;2.33;;;;;;;7.79;80.98;100243.95;1789243;80;25532;-70
2021/09/20 03:21:46;;;;;;;3.50;2.22;;;;;;;7.77;80.99;100252.31;1789095;80;25604;-70
2021/09/20 03:24:14;;;;;;;3.00;2.40;;;;;;;7.77;81.10;100251.52;1789217;80;25650;-69
2021/09/20 03:26:42;;;;;;;3.08;2.77;;;;;;;7.77;81.16;100250.97;1789226;80;25464;-70
2021/09/20 03:29:09;;;;;;;3.58;2.30;;;;;;;7.75;81.14;100251.80;1789162;80;28032;-70
2021/09/20 03:31:36;;;;;;;3.95;2.50;;;;;;;7.76;81.19;100250.70;1789156;80;25694;-70
2021/09/20 03:34:03;;;;;;;5.87;2.47;;;;;;;7.76;81.26;100255.30;1789209;80;25548;-70
2021/09/20 03:36:30;;;;;;;3.70;2.50;;;;;;;7.76;81.29;100256.64;1789103;80;26183;-70
2021/09/20 03:38:57;;;;;;;3.58;2.70;;;;;;;7.75;81.30;100253.70;1789211;80;26115;-69
2021/09/20 03:41:24;;;;;;;5.00;2.52;;;;;;;7.74;81.21;100250.75;1789319;80;27519;-69
2021/09/20 03:43:50;;;;;;;4.05;3.00;;;;;;;7.73;81.24;100247.79;1789039;80;25589;-71
2021/09/20 03:46:17;;;;;;;4.65;2.47;;;;;;;7.71;81.30;100245.38;1787793;80;26284;-69
2021/09/20 03:48:44;;;;;;;3.37;2.35;;;;;;;7.70;81.40;100245.15;1783319;80;25599;-69
2021/09/20 03:51:11;;;;;;;3.83;2.58;;;;;;;7.70;81.42;100249.74;1783491;80;25463;-69
2021/09/20 03:53:37;;;;;;;2.80;2.50;;;;;;;7.69;81.41;100246.23;1783608;80;27489;-70
2021/09/20 03:56:05;;;;;;;8.70;2.62;;;;;;;7.69;81.55;100248.92;1783475;80;25607;-71
2021/09/20 03:58:32;;;;;;;3.58;2.55;;;;;;;7.70;81.63;100257.27;1783573;80;25666;-70
2021/09/20 04:00:58;;;;;;;7.08;4.05;;;;;;;7.70;81.59;100255.13;1783457;80;25670;-70
2021/09/20 04:03:25;;;;;;;3.17;2.25;;;;;;;7.70;81.65;100261.30;1783817;80;25651;-70
2021/09/20 04:05:52;;;;;;;4.45;2.33;;;;;;;7.70;81.69;100265.34;1783420;80;27504;-70
2021/09/20 04:08:18;;;;;;;10.78;2.80;;;;;;;7.71;81.62;100262.88;1783513;80;25485;-70
2021/09/20 04:10:44;;;;;;;3.30;2.10;;;;;;;7.71;81.60;100266.92;1783548;80;25674;-71
2021/09/20 04:13:11;;;;;;;4.40;2.33;;;;;;;7.72;81.63;100273.12;1783502;80;25681;-70
2021/09/20 04:15:38;;;;;;;4.10;2.40;;;;;;;7.70;81.57;100269.38;1783568;80;25467;-70
2021/09/20 04:18:06;;;;;;;2.90;2.00;;;;;;;7.69;81.55;100266.97;1783568;80;27421;-71
2021/09/20 04:20:33;;;;;;;2.05;1.70;;;;;;;7.70;81.58;100273.42;1783414;80;25756;-69
2021/09/20 04:22:59;;;;;;;2.20;1.90;;;;;;;7.69;81.50;100275.84;1783485;80;25654;-69
2021/09/20 04:25:26;;;;;;;2.85;1.87;;;;;;;7.68;81.47;100274.26;1783520;80;25569;-70
2021/09/20 04:27:52;;;;;;;2.42;1.82;;;;;;;7.68;81.48;100272.91;1783441;80;25393;-70
2021/09/20 04:30:19;;;;;;;2.10;1.60;;;;;;;7.67;81.43;100278.03;1783579;80;27570;-70
2021/09/20 04:32:45;;;;;;;3.55;2.10;;;;;;;7.66;81.39;100275.89;1783461;80;25516;-70
2021/09/20 04:35:12;;;;;;;2.90;2.25;;;;;;;7.66;81.38;100277.23;1783488;80;25465;-70
2021/09/20 04:37:39;;;;;;;10.82;2.80;;;;;;;7.64;81.43;100272.69;1783623;80;25542;-70
2021/09/20 04:40:08;;;;;;;4.17;2.08;;;;;;;7.69;81.52;100275.84;1783611;80;25639;-70
2021/09/20 04:42:34;;;;;;;1.77;1.67;;;;;;;7.69;81.52;100273.70;1783719;80;27391;-70
2021/09/20 04:45:01;;;;;;;4.85;1.57;;;;;;;7.70;81.42;100280.70;1783435;80;25409;-70
2021/09/20 04:47:27;;;;;;;3.85;1.82;;;;;;;7.70;81.31;100277.45;1783516;80;25490;-70
2021/09/20 04:49:54;;;;;;;3.33;1.95;;;;;;;7.69;81.34;100271.80;1783472;80;25652;-71
2021/09/20 04:52:20;;;;;;;5.72;2.20;;;;;;;7.70;81.45;100277.45;1783530;80;25531;-69
2021/09/20 04:54:46;;;;;;;3.33;1.75;;;;;;;7.71;81.45;100283.08;1783598;80;27471;-70
2021/09/20 04:57:13;;;;;;;1.87;1.77;;;;;;;7.72;81.43;100289.28;1783450;80;25635;-70
2021/09/20 04:59:39;;;;;;;2.20;2.00;;;;;;;7.72;81.57;100291.42;1783582;80;25413;-71
2021/09/20 05:02:05;;;;;;;1.95;1.75;;;;;;;7.74;81.61;100291.14;1783575;80;25631;-71
2021/09/20 05:04:32;;;;;;;2.55;1.98;;;;;;;7.75;81.64;100291.41;1783600;80;25414;-71
2021/09/20 05:06:58;;;;;;;3.40;2.05;;;;;;;7.77;81.68;100296.74;1783475;80;28025;-71
2021/09/20 05:09:25;;;;;;;3.50;1.80;;;;;;;7.77;81.65;100290.01;1783589;80;25526;-70
2021/09/20 05:11:51;;;;;;;2.47;1.90;;;;;;;7.77;81.73;100290.01;1783504;80;25615;-71
2021/09/20 05:14:18;;;;;;;4.95;1.90;;;;;;;7.80;81.77;100294.81;1783626;80;25463;-72
2021/09/20 05:16:44;;;;;;;5.47;1.92;;;;;;;7.80;81.64;100295.38;1783592;80;25697;-71
2021/09/20 05:19:11;;;;;;;3.35;2.25;;;;;;;7.80;81.60;100287.30;1783497;80;28351;-71
2021/09/20 05:21:37;;;;;;;6.45;2.72;;;;;;;7.81;81.61;100295.61;1783505;80;25276;-72
2021/09/20 05:24:07;;;;;;;3.92;1.80;;;;;;;7.81;81.74;100292.92;1783549;80;25665;-71
2021/09/20 05:26:33;;;;;;;;;;;;;;;7.82;81.59;100299.92;1786030;80;26534;-70
2021/09/20 05:28:59;;;;;;;2.55;1.95;;;;;;;7.82;81.67;100295.88;1772667;80;25636;-69
2021/09/20 05:31:25;;;;;;;2.20;1.80;;;;;;;7.80;81.66;100292.13;1742521;81;27431;-70
2021/09/20 05:33:52;;;;;;;4.87;2.62;;;;;;;7.83;81.81;100295.59;1773078;80;25436;-70
2021/09/20 05:36:18;;;;;;;3.17;1.92;;;;;;;7.85;81.85;100303.39;1739986;81;25690;-70
2021/09/20 05:38:45;;;;;;;4.78;1.80;;;;;;;7.88;81.82;100306.03;1771888;80;26118;-70
2021/09/20 05:41:11;;;;;;;2.58;1.92;;;;;;;7.89;81.67;100304.95;1751047;81;25701;-70
2021/09/20 05:43:37;;;;;;;2.33;1.95;;;;;;;7.88;81.57;100300.09;1752806;81;27474;-70
2021/09/20 05:46:04;;;;;;;4.20;2.22;;;;;;;7.87;81.50;100302.55;1754202;81;25666;-70
2021/09/20 05:48:30;;;;;;;2.87;1.72;;;;;;;7.86;81.49;100305.77;1759195;81;25444;-69
2021/09/20 05:50:57;;;;;;;3.70;2.00;;;;;;;7.85;81.43;100312.81;1759959;81;25643;-70
2021/09/20 05:53:24;;;;;;;2.55;1.98;;;;;;;7.83;81.52;100310.41;1760069;81;25498;-70
2021/09/20 05:55:51;;;;;;;4.65;2.27;;;;;;;7.82;81.65;100308.79;1759818;81;27691;-69
2021/09/20 05:58:18;;;;;;;4.95;2.20;;;;;;;7.81;81.71;100311.22;1759999;81;25417;-69
2021/09/20 06:00:44;;;;;;;3.30;1.70;;;;;;;7.80;81.93;100311.53;1760064;81;25566;-69
2021/09/20 06:03:11;;;;;;;2.42;2.00;;;;;;;7.76;82.07;100313.97;1759809;81;25649;-69
2021/09/20 06:05:38;;;;;;;4.33;2.30;;;;;;;7.73;82.13;100314.58;1760008;81;25481;-68
2021/09/20 06:08:07;;;;;;;3.22;2.47;;;;;;;7.73;82.35;100312.41;1759995;81;27525;-70
2021/09/20 06:10:34;;;;;;;2.22;2.02;;;;;;;7.71;82.64;100311.91;1759901;81;25652;-70
2021/09/20 06:13:03;;;;;;;2.47;2.20;;;;;;;7.70;82.68;100317.84;1759871;81;25745;-68
2021/09/20 06:15:29;;;;;;;2.55;2.35;;;;;;;7.68;82.76;100317.34;1759770;80;26598;-68
2021/09/20 06:17:57;;;;;;;6.20;2.35;;;;;;;7.67;83.01;100307.64;1772884;80;25457;-68
2021/09/20 06:20:23;;;;;;;4.40;2.15;;;;;;;7.67;83.25;100313.82;1761743;81;27409;-68
2021/09/20 06:22:50;;;;;;;3.85;2.02;;;;;;;7.66;83.40;100308.72;1792795;80;25549;-68
2021/09/20 06:25:16;;;;;;;3.08;2.15;;;;;;;7.67;83.50;100309.78;1761488;81;25628;-68
2021/09/20 06:27:43;;;;;;;3.65;2.33;;;;;;;7.68;83.79;100309.26;1765751;80;25461;-68
2021/09/20 06:30:12;;;;;;;2.40;2.08;;;;;;;7.70;83.96;100308.97;1785171;80;25642;-68
2021/09/20 06:32:39;;;;;;;3.77;2.20;;;;;;;7.70;83.93;100303.59;1788875;80;27475;-68
2021/09/20 06:35:08;;;;;;;2.77;2.20;;;;;;;7.70;84.10;100301.69;1784875;80;27339;-68
2021/09/20 06:37:35;;;;;;;4.60;2.52;;;;;;;7.74;84.25;100308.64;1788924;80;25611;-68
2021/09/20 06:40:03;;;;;;;3.25;2.08;;;;;;;7.76;84.21;100313.19;1784967;80;25629;-68
2021/09/20 06:42:30;;;;;;;3.72;2.00;;;;;;;7.77;84.17;100312.89;1788742;80;25692;-68
2021/09/20 06:44:56;;;;;;;3.90;1.50;;;;;;;7.81;84.22;100319.30;1785116;80;27528;-68
2021/09/20 06:47:23;;;;;;;4.05;1.95;;;;;;;7.83;84.24;100319.01;1782497;80;25654;-68
2021/09/20 06:49:50;;;;;;;2.65;1.70;;;;;;;7.87;84.20;100314.66;1756619;81;25665;-68
2021/09/20 06:52:18;;;;;;;3.50;2.00;;;;;;;7.90;84.16;100316.78;1767946;81;27634;-68
2021/09/20 06:54:45;;;;;;;4.08;1.52;;;;;;;7.93;84.21;100312.69;1756764;81;25579;-67
2021/09/20 06:57:12;;;;;;;2.35;1.82;;;;;;;8.00;84.31;100315.81;1767986;81;27516;-68
2021/09/20 06:59:38;;;;;;;3.10;1.57;;;;;;;8.05;84.30;100319.78;1756683;81;25606;-69
2021/09/20 07:02:05;;;;;;;4.30;1.80;;;;;;;8.12;84.59;100322.94;1768006;81;25385;-68
2021/09/20 07:04:36;;;;;;;2.42;1.80;;;;;;;8.20;84.52;100328.99;1756592;81;25845;-68
2021/09/20 07:07:00;;;;;;;7.55;2.20;;;;;;;8.31;84.85;100325.63;1767116;81;25560;-68
2021/09/20 07:09:27;;;;;;;2.55;1.80;;;;;;;8.38;84.65;100328.73;1756755;81;28024;-68
2021/09/20 07:11:53;;;;;;;4.03;2.15;;;;;;;8.45;84.47;100333.00;1767860;81;25416;-68
2021/09/20 07:14:20;;;;;;;3.15;1.70;;;;;;;8.50;84.20;100335.62;1756861;81;25452;-68
2021/09/20 07:16:46;;;;;;;5.28;1.80;;;;;;;8.52;83.73;100335.56;1767969;81;25724;-68
2021/09/20 07:19:13;;;;;;;2.22;1.87;;;;;;;8.54;83.38;100336.06;1756598;81;25397;-68
2021/09/20 07:21:39;;;;;;;2.52;1.90;;;;;;;8.48;82.41;100339.13;1768028;81;29594;-68
2021/09/20 07:24:06;;;;;;;3.72;1.70;;;;;;;8.48;82.39;100341.30;1756575;81;25449;-68
2021/09/20 07:26:33;;;;;;;2.42;2.00;;;;;;;8.47;82.48;100336.99;1768066;81;25588;-68
2021/09/20 07:29:00;;;;;;;1.90;1.32;;;;;;;8.49;82.55;100344.23;1756868;81;25594;-69
2021/09/20 07:31:27;;;;;;;2.42;1.55;;;;;;;8.52;82.46;100348.25;1768216;81;25556;-69
2021/09/20 07:33:54;;;;;;;3.12;1.70;;;;;;;8.53;82.24;100344.44;1756737;81;27502;-70
2021/09/20 07:36:21;;;;;;;2.33;2.00;;;;;;;8.52;81.88;100351.73;1768064;81;25739;-69
2021/09/20 07:38:47;;;;;;;4.87;2.22;;;;;;;8.52;81.51;100350.39;1745860;81;25815;-70
2021/09/20 07:41:14;;;;;;;6.33;1.67;;;;;;;8.49;81.19;100352.31;1728130;83;25562;-69
2021/09/20 07:43:45;;;;;;;3.80;1.52;;;;;;;8.48;80.96;100348.56;1728565;83;25571;-69
2021/09/20 07:46:09;;;;;;;2.05;1.70;;;;;;;8.46;80.62;100353.45;1728199;83;27533;-69
2021/09/20 07:48:35;;;;;;;2.75;1.57;;;;;;;8.42;80.43;100353.21;1744069;81;25673;-70
2021/09/20 07:51:02;;;;;;;2.40;1.40;;;;;;;8.44;80.52;100353.74;1753635;81;25605;-70
2021/09/20 07:53:28;;;;;;;3.12;1.90;;;;;;;8.46;80.59;100362.34;1765840;79;25657;-69
2021/09/20 07:55:55;;;;;;;2.22;1.70;;;;;;;8.49;80.32;100359.06;1753470;81;25687;-69
2021/09/20 07:58:21;;;;;;;1.50;1.40;;;;;;;8.49;80.08;100355.57;1753623;81;28066;-69
2021/09/20 08:00:47;;;;;;;2.27;1.65;;;;;;;8.49;79.78;100360.41;1753529;81;25607;-69
2021/09/20 08:03:14;;;;;;;5.55;2.55;;;;;;;8.55;80.06;100355.20;1753483;81;25714;-69
2021/09/20 08:05:41;;;;;;;2.55;1.62;;;;;;;8.63;80.17;100358.31;1753574;81;25752;-69
2021/09/20 08:08:09;;;;;;;3.15;1.50;;;;;;;8.68;79.69;100350.15;1753561;81;25651;-69
2021/09/20 08:10:36;;;;;;;2.40;1.70;;;;;;;8.70;79.38;100355.52;1753593;81;27478;-69
2021/09/20 08:13:04;;;;;;;2.27;1.50;;;;;;;8.75;79.54;100354.08;1753470;81;25870;-70
2021/09/20 08:15:31;;;;;;;2.30;1.72;;;;;;;8.83;79.48;100362.59;1753615;81;25624;-70
2021/09/20 08:17:58;;;;;;;2.98;1.62;;;;;;;8.89;79.30;100366.81;1753453;81;25604;-71
2021/09/20 08:20:25;;;;;;;2.58;1.37;;;;;;;8.92;78.82;100368.37;1753702;81;25447;-70
2021/09/20 08:22:52;;;;;;;2.75;1.72;;;;;;;8.97;78.60;100375.03;1753583;81;27586;-70
2021/09/20 08:25:22;;;;;;;1.90;1.60;;;;;;;9.00;78.56;100371.48;1753420;81;25406;-69
2021/09/20 08:27:50;;;;;;;1.67;1.32;;;;;;;9.01;78.03;100373.88;1753716;81;25792;-69
2021/09/20 08:30:19;;;;;;;1.50;1.40;;;;;;;9.01;77.66;100375.23;1753547;81;25574;-69
2021/09/20 08:32:46;;;;;;;1.37;1.25;;;;;;;8.98;77.09;100373.91;1757097;80;26211;-70
2021/09/20 08:35:13;;;;;;;4.90;1.60;;;;;;;8.95;76.79;100376.41;1784645;80;28092;-68
2021/09/20 08:37:41;;;;;;;3.58;1.35;;;;;;;8.92;76.32;100376.98;1784585;80;25729;-69
2021/09/20 08:40:10;;;;;;;1.85;1.30;;;;;;;8.86;76.53;100376.28;1784576;80;25613;-70
2021/09/20 08:42:38;;;;;;;;;;;;;;;8.86;76.88;100384.38;1787319;80;25616;-69
2021/09/20 08:45:08;;;;;;;1.90;1.37;;;;;;;8.89;76.84;100381.09;1784674;80;25393;-70
2021/09/20 08:47:37;;;;;;;1.45;1.35;;;;;;;8.90;76.67;100376.48;1758623;81;27443;-70
2021/09/20 08:50:05;;;;;;;5.20;1.63;;;;;;;8.92;76.90;100375.11;1745939;80;25590;-69
2021/09/20 08:52:31;;;;;;;2.12;1.82;;;;;;;8.99;76.95;100376.08;1776097;80;25669;-69
2021/09/20 08:54:58;;;;;;;3.58;1.80;;;;;;;9.07;77.33;100379.98;1775945;80;25596;-69
2021/09/20 08:57:27;;;;;;;4.65;2.40;;;;;;;9.14;77.29;100384.44;1776114;80;25613;-68
2021/09/20 08:59:54;;;;;;;2.35;1.67;;;;;;;9.20;76.96;100390.56;1755978;81;27449;-69
2021/09/20 09:02:22;;;;;;;3.70;1.87;;;;;;;9.22;76.65;100389.16;1769913;81;25765;-70
2021/09/20 09:04:48;;;;;;;6.92;3.37;;;;;;;9.23;76.40;100390.77;1755975;81;25687;-69
2021/09/20 09:07:20;;;;;;;5.05;3.37;;;;;;;9.22;76.35;100389.16;1769870;81;25660;-68
2021/09/20 09:09:50;;;;;;;3.70;2.47;;;;;;;9.21;76.32;100388.92;1755983;81;25715;-69
2021/09/20 09:12:23;;;;;;;3.25;2.12;;;;;;;9.21;76.20;100380.83;1776104;80;27897;-68
2021/09/20 09:14:57;;;;;;;5.55;2.50;;;;;;;9.21;76.08;100390.27;1755984;81;25479;-69
2021/09/20 09:17:36;;;;;;;2.83;2.00;;;;;;;9.20;76.03;100388.66;1769976;81;25363;-72
2021/09/20 09:20:10;;;;;;;3.27;1.53;;;;;;;9.22;76.13;100387.02;1755736;81;25554;-71
2021/09/20 09:22:51;;;;;;;2.08;1.52;;;;;;;9.26;76.30;100378.56;1769972;81;25582;-72
2021/09/20 09:25:41;;;;;;;2.12;1.60;;;;;;;9.35;76.66;100385.68;1755943;81;27374;-64
2021/09/20 09:28:26;;;;;;;2.70;1.40;;;;;;;9.52;77.19;100387.80;1769978;80;25544;-64
2021/09/20 09:31:53;;;;;;;18.35;16.05;;;;;;;9.82;76.76;100398.30;1905073;74;34634;-72
2021/09/20 09:34:32;;;;;;;2.83;2.55;;;;;;;9.80;76.08;100393.19;1787967;80;25681;-71
2021/09/20 09:37:17;;;;;;;11.20;10.20;;;;;;;9.76;75.20;100388.16;1789654;79;27502;-70
2021/09/20 09:39:44;;;;;;;2.30;1.40;;;;;;;9.70;74.67;100387.47;1810224;79;25673;-70
2021/09/20 09:42:25;;;;;;;1.50;1.32;;;;;;;9.67;74.58;100397.52;1789523;80;25722;-71
2021/09/20 09:44:51;;;;;;;3.83;3.45;;;;;;;9.63;74.46;100398.41;1819976;78;25647;-70
2021/09/20 09:47:31;;;;;;;2.40;1.47;;;;;;;9.56;74.33;100397.45;1810279;79;25435;-70
2021/09/20 09:51:03;;;;;;;1.65;1.42;;;;;;;9.62;74.78;100409.77;1905251;74;34746;-64
2021/09/20 09:54:32;;;;;;;2.02;1.50;;;;;;;9.62;74.69;100405.72;1905096;74;34731;-70
2021/09/20 09:57:22;;;;;;;1.72;1.60;;;;;;;9.54;74.55;100408.55;1859743;77;25632;-69
2021/09/20 09:59:59;;;;;;;2.15;1.80;;;;;;;9.52;74.41;100406.70;1859735;76;28141;-70
2021/09/20 10:02:32;;;;;;;1.85;1.50;;;;;;;9.53;74.57;100402.91;1859550;76;25283;-70
2021/09/20 10:05:06;;;;;;;2.47;1.75;;;;;;;9.52;74.54;100397.25;1859756;77;25642;-71
2021/09/20 10:07:37;;;;;;;2.02;1.55;;;;;;;9.55;74.65;100402.59;1859429;77;26234;-70
2021/09/20 10:10:12;;;;;;;4.50;2.10;;;;;;;9.57;74.60;100409.86;1859038;76;25649;-70
2021/09/20 10:12:41;;;;;;;2.15;1.60;;;;;;;9.57;74.46;100405.81;1859621;77;27994;-71
2021/09/20 10:15:12;;;;;;;2.33;1.90;;;;;;;9.54;73.90;100407.20;1859614;77;25560;-70
2021/09/20 10:17:40;;;;;;;2.40;2.05;;;;;;;9.49;73.72;100402.45;1838443;77;25543;-69
2021/09/20 10:20:11;;;;;;;2.08;1.67;;;;;;;9.45;73.53;100406.83;1859615;76;25572;-70
2021/09/20 10:22:38;;;;;;;2.42;1.50;;;;;;;9.42;74.06;100414.20;1859499;77;25512;-71
2021/09/20 10:25:09;;;;;;;2.08;1.67;;;;;;;9.45;74.35;100406.83;1859601;76;28070;-71
2021/09/20 10:27:37;;;;;;;4.10;1.92;;;;;;;9.51;74.45;100409.14;1859506;77;25566;-69
2021/09/20 10:30:18;;;;;;;4.28;1.70;;;;;;;9.58;74.53;100418.75;1859614;77;25408;-71
2021/09/20 10:32:55;;;;;;;3.25;1.87;;;;;;;9.63;74.48;100414.05;1859831;76;25640;-71
2021/09/20 10:35:35;;;;;;;2.02;1.80;;;;;;;9.68;74.15;100422.61;1858419;76;25120;-70
2021/09/20 10:38:20;;;;;;;;;;;;;;;9.68;73.96;100411.81;1862539;77;27496;-71
2021/09/20 10:41:11;;;;;;;6.87;1.85;;;;;;;9.67;73.75;100423.17;1859936;77;25587;-71
2021/09/20 10:43:48;;;;;;;2.70;1.60;;;;;;;9.62;73.68;100417.87;1846060;77;25730;-71
2021/09/20 10:46:24;;;;;;;3.70;1.87;;;;;;;9.60;73.56;100424.66;1855175;76;25605;-70
2021/09/20 10:49:01;;;;;;;2.27;1.90;;;;;;;9.57;73.27;100421.19;1859072;76;25428;-69
2021/09/20 10:51:39;;;;;;;3.08;1.98;;;;;;;9.53;73.39;100424.52;1859499;77;27455;-70
2021/09/20 10:54:22;;;;;;;1.92;1.75;;;;;;;9.50;73.40;100426.45;1859369;76;25572;-70
2021/09/20 10:56:56;;;;;;;2.33;1.60;;;;;;;9.50;73.61;100421.58;1859558;77;25555;-70
2021/09/20 10:59:28;;;;;;;3.27;2.00;;;;;;;9.50;73.79;100429.16;1838076;77;25824;-70
2021/09/20 11:01:58;;;;;;;3.12;1.92;;;;;;;9.51;73.67;100422.64;1859657;77;25680;-71
2021/09/20 11:04:35;;;;;;;3.15;1.98;;;;;;;9.50;73.77;100422.94;1859353;77;28309;-71
2021/09/20 11:07:12;;;;;;;1.90;1.62;;;;;;;9.50;73.77;100422.94;1858883;77;25383;-70
2021/09/20 11:09:49;;;;;;;1.82;1.57;;;;;;;9.51;73.62;100427.25;1858867;77;25580;-70
2021/09/20 11:12:23;;;;;;;2.25;1.80;;;;;;;9.49;73.42;100435.64;1858901;76;25446;-69
2021/09/20 11:15:01;;;;;;;3.30;1.85;;;;;;;9.50;73.54;100424.28;1858919;76;25688;-69
2021/09/20 11:17:49;;;;;;;2.72;1.92;;;;;;;9.50;73.56;100423.75;1854826;76;27526;-68
2021/09/20 11:20:26;;;;;;;2.50;1.80;;;;;;;9.54;73.77;100426.09;1858920;77;25354;-70
2021/09/20 11:23:22;;;;;;;2.65;1.98;;;;;;;9.63;74.07;100432.95;1858831;77;25343;-70
2021/09/20 11:26:13;;;;;;;3.20;1.90;;;;;;;9.69;73.73;100431.77;1856894;77;25788;-70
2021/09/20 11:28:45;;;;;;;2.45;2.20;;;;;;;9.73;73.49;100435.46;1858960;77;25508;-70
2021/09/20 11:31:12;;;;;;;2.35;1.87;;;;;;;9.76;72.99;100438.13;1857786;76;27456;-68
2021/09/20 11:33:48;;;;;;;3.35;1.67;;;;;;;9.77;72.98;100444.32;1858774;77;25696;-70
2021/09/20 11:36:26;;;;;;;3.30;1.90;;;;;;;9.78;73.28;100443.23;1858895;76;25571;-71
2021/09/20 11:39:16;;;;;;;2.30;1.80;;;;;;;9.84;73.53;100437.96;1858919;77;25520;-71
2021/09/20 11:41:46;;;;;;;;;;;;;;;9.92;73.48;100438.62;1861678;77;25469;-70
2021/09/20 11:44:15;;;;;;;6.60;1.95;;;;;;;10.00;73.22;100441.97;1858883;76;28087;-69